createdAt,value
2022-12-12T00:02:01.175Z,28.77
2022-12-12T00:07:32.220Z,30.33
2022-12-12T00:10:21.450Z,22.25
2022-12-12T00:13:03.687Z,20.98
2022-12-12T00:16:03.365Z,29.75
2022-12-12T00:18:51.391Z,31.38
2022-12-12T00:21:30.048Z,17.27
2022-12-12T00:24:05.069Z,26.35
2022-12-12T00:26:37.040Z,20.98
2022-12-12T00:29:05.857Z,31.13
2022-12-12T00:31:34.321Z,28.70
2022-12-12T00:34:03.200Z,21.65
2022-12-12T00:36:32.339Z,31.60
2022-12-12T00:39:02.365Z,22.77
2022-12-12T00:41:30.398Z,26.08
2022-12-12T00:43:58.469Z,27.67
2022-12-12T00:46:27.432Z,19.90
2022-12-12T00:48:57.134Z,25.17
2022-12-12T00:51:27.094Z,24.17
2022-12-12T00:53:57.797Z,27.95
2022-12-12T00:56:28.811Z,23.23
2022-12-12T00:58:56.930Z,26.13
2022-12-12T01:01:27.790Z,26.52
2022-12-12T01:03:56.236Z,22.60
2022-12-12T01:06:25.198Z,22.15
2022-12-12T01:08:53.547Z,15.65
2022-12-12T01:11:22.517Z,23.08
2022-12-12T01:13:53.721Z,26.08
2022-12-12T01:16:22.620Z,24.77
2022-12-12T01:18:51.281Z,24.30
2022-12-12T01:21:20.935Z,27.70
2022-12-12T01:23:49.405Z,22.52
2022-12-12T01:26:19.259Z,30.85
2022-12-12T01:28:48.080Z,18.73
2022-12-12T01:31:17.579Z,18.17
2022-12-12T01:33:49.405Z,31.45
2022-12-12T01:36:21.870Z,23.52
2022-12-12T01:38:51.899Z,29.33
2022-12-12T01:41:21.559Z,25.35
2022-12-12T01:43:50.168Z,26.45
2022-12-12T01:46:45.104Z,24.58
2022-12-12T01:49:19.000Z,28.95
2022-12-12T01:51:48.874Z,23.65
2022-12-12T01:54:20.850Z,31.55
2022-12-12T01:56:50.864Z,25.27
2022-12-12T01:59:21.910Z,23.92
2022-12-12T02:01:52.038Z,24.67
2022-12-12T02:04:22.710Z,27.15
2022-12-12T02:06:52.054Z,25.52
2022-12-12T02:09:21.906Z,24.40
2022-12-12T02:11:52.280Z,26.10
2022-12-12T02:14:24.345Z,26.83
2022-12-12T02:17:18.155Z,20.35
2022-12-12T02:20:27.372Z,23.83
2022-12-12T02:23:27.241Z,21.45
2022-12-12T02:26:25.800Z,24.60
2022-12-12T02:29:32.588Z,16.60
2022-12-12T02:32:08.103Z,28.17
2022-12-12T02:34:46.344Z,24.08
2022-12-12T02:37:20.436Z,28.60
2022-12-12T02:39:57.614Z,23.27
2022-12-12T02:42:30.913Z,23.60
2022-12-12T02:45:06.160Z,28.60
2022-12-12T02:47:40.371Z,17.55
2022-12-12T02:50:12.304Z,22.80
2022-12-12T02:52:42.962Z,23.90
2022-12-12T02:55:11.985Z,19.88
2022-12-12T02:57:41.723Z,21.42
2022-12-12T03:00:12.398Z,25.42
2022-12-12T03:03:31.555Z,25.60
2022-12-12T03:06:30.764Z,17.75
2022-12-12T03:09:08.578Z,25.35
2022-12-12T03:11:48.887Z,29.60
2022-12-12T03:14:24.556Z,26.95
2022-12-12T03:17:02.887Z,21.23
2022-12-12T03:19:39.380Z,20.23
2022-12-12T03:22:13.077Z,20.15
2022-12-12T03:24:49.707Z,22.42
2022-12-12T03:27:23.886Z,30.90
2022-12-12T03:29:56.529Z,23.52
2022-12-12T03:32:29.293Z,20.30
2022-12-12T03:35:04.124Z,11.73
2022-12-12T03:37:37.123Z,20.33
2022-12-12T03:40:10.251Z,25.15
2022-12-12T03:42:43.270Z,24.20
2022-12-12T03:45:15.258Z,22.27
2022-12-12T03:47:51.705Z,14.95
2022-12-12T03:50:23.861Z,26.67
2022-12-12T03:52:55.404Z,14.98
2022-12-12T03:55:28.661Z,19.55
2022-12-12T03:58:00.564Z,27.73
2022-12-12T04:00:30.155Z,18.23
2022-12-12T04:03:06.953Z,26.05
2022-12-12T04:06:04.584Z,24.60
2022-12-12T04:08:33.366Z,21.35
2022-12-12T04:11:25.253Z,15.57
2022-12-12T04:14:02.289Z,18.38
2022-12-12T04:16:34.361Z,14.70
2022-12-12T04:19:06.640Z,15.52
2022-12-12T04:22:01.742Z,12.77
2022-12-12T04:24:36.405Z,15.73
2022-12-12T04:27:09.303Z,12.73
2022-12-12T04:29:42.259Z,13.70
2022-12-12T04:32:17.000Z,16.88
2022-12-12T04:34:49.489Z,22.77
2022-12-12T04:37:22.879Z,17.42
2022-12-12T04:39:54.670Z,19.67
2022-12-12T04:42:25.934Z,15.05
2022-12-12T04:44:59.030Z,9.70
2022-12-12T04:47:30.715Z,14.75
2022-12-12T04:50:02.099Z,17.83
2022-12-12T04:52:34.720Z,14.30
2022-12-12T04:55:07.035Z,15.32
2022-12-12T04:57:40.028Z,15.13
2022-12-12T05:00:09.597Z,13.55
2022-12-12T05:02:44.919Z,19.35
2022-12-12T05:05:18.175Z,16.83
2022-12-12T05:07:55.909Z,10.95
2022-12-12T05:10:25.124Z,11.00
2022-12-12T05:12:57.882Z,14.77
2022-12-12T05:15:28.589Z,12.52
2022-12-12T05:18:00.927Z,16.17
2022-12-12T05:20:28.955Z,9.00
2022-12-12T05:22:58.358Z,15.48
2022-12-12T05:25:26.392Z,11.30
2022-12-12T05:27:54.408Z,15.55
2022-12-12T05:30:23.044Z,11.05
2022-12-12T05:32:51.139Z,20.70
2022-12-12T05:35:19.511Z,12.45
2022-12-12T05:37:51.663Z,14.25
2022-12-12T05:40:23.233Z,13.68
2022-12-12T05:42:51.438Z,11.57
2022-12-12T05:45:20.182Z,14.63
2022-12-12T05:47:48.222Z,11.45
2022-12-12T05:50:16.292Z,18.00
2022-12-12T05:52:44.952Z,20.42
2022-12-12T05:55:13.268Z,13.02
2022-12-12T05:57:42.800Z,13.80
2022-12-12T06:00:11.849Z,11.40
2022-12-12T06:02:40.097Z,12.02
2022-12-12T06:05:08.878Z,13.23
2022-12-12T06:07:36.885Z,9.60
2022-12-12T06:10:07.281Z,13.13
2022-12-12T06:12:35.313Z,13.15
2022-12-12T06:15:05.372Z,10.13
2022-12-12T06:17:33.746Z,12.90
2022-12-12T06:20:02.580Z,13.35
2022-12-12T06:22:30.612Z,14.40
2022-12-12T06:24:58.654Z,8.63
2022-12-12T06:27:26.844Z,7.07
2022-12-12T06:29:55.044Z,9.35
2022-12-12T06:32:24.392Z,13.82
2022-12-12T06:34:52.420Z,14.60
2022-12-12T06:37:21.130Z,13.50
2022-12-12T06:39:51.186Z,7.65
2022-12-12T06:42:19.130Z,9.40
2022-12-12T06:44:47.307Z,7.88
2022-12-12T06:47:15.595Z,10.57
2022-12-12T06:49:44.953Z,6.43
2022-12-12T06:52:12.984Z,9.65
2022-12-12T06:54:41.055Z,8.27
2022-12-12T06:57:09.091Z,8.63
2022-12-12T06:59:37.155Z,6.97
2022-12-12T07:02:05.774Z,8.80
2022-12-12T07:04:33.877Z,7.38
2022-12-12T07:07:03.252Z,5.93
2022-12-12T07:09:31.409Z,8.68
2022-12-12T07:11:59.536Z,8.90
2022-12-12T07:14:27.614Z,7.53
2022-12-12T07:16:55.710Z,5.28
2022-12-12T07:19:23.808Z,4.45
2022-12-12T07:21:51.824Z,5.72
2022-12-12T07:24:21.247Z,7.75
2022-12-12T07:26:49.316Z,10.77
2022-12-12T07:29:17.379Z,7.85
2022-12-12T07:31:45.394Z,9.20
2022-12-12T07:34:13.396Z,6.75
2022-12-12T07:36:42.241Z,18.00
2022-12-12T07:39:10.287Z,7.97
2022-12-12T07:41:40.964Z,4.30
2022-12-12T07:44:09.421Z,6.25
2022-12-12T07:46:37.544Z,6.70
2022-12-12T07:49:05.759Z,6.50
2022-12-12T07:51:33.804Z,6.88
2022-12-12T07:54:02.076Z,8.07
2022-12-12T07:56:30.093Z,9.50
2022-12-12T07:58:59.549Z,11.38
2022-12-12T08:01:29.688Z,7.47
2022-12-12T08:03:58.064Z,4.95
2022-12-12T08:06:26.615Z,5.05
2022-12-12T08:08:54.942Z,6.65
2022-12-12T08:11:25.401Z,9.27
2022-12-12T08:13:54.403Z,4.95
2022-12-12T08:16:25.890Z,9.55
2022-12-12T08:18:55.110Z,6.43
2022-12-12T08:21:26.077Z,8.43
2022-12-12T08:23:57.110Z,9.82
2022-12-12T08:26:25.928Z,16.08
2022-12-12T08:28:54.499Z,11.48
2022-12-12T08:31:24.730Z,4.45
2022-12-12T08:33:53.965Z,4.80
2022-12-12T08:36:24.054Z,5.10
2022-12-12T08:38:52.507Z,7.03
2022-12-12T08:41:21.084Z,8.73
2022-12-12T08:43:49.571Z,6.00
2022-12-12T08:46:19.357Z,7.70
2022-12-12T08:48:49.269Z,12.35
2022-12-12T08:51:18.496Z,7.40
2022-12-12T08:53:46.730Z,7.13
2022-12-12T08:56:14.956Z,9.13
2022-12-12T08:58:44.686Z,9.70
2022-12-12T09:01:13.312Z,6.82
2022-12-12T09:03:41.347Z,10.85
2022-12-12T09:06:11.695Z,11.55
2022-12-12T09:08:40.278Z,4.35
2022-12-12T09:11:08.557Z,7.15
2022-12-12T09:13:36.782Z,3.95
2022-12-12T09:16:05.833Z,11.27
2022-12-12T09:18:34.399Z,6.57
2022-12-12T09:21:02.824Z,8.43
2022-12-12T09:23:32.705Z,7.03
2022-12-12T09:26:05.981Z,2.97
2022-12-12T09:28:34.080Z,6.72
2022-12-12T09:31:04.664Z,7.93
2022-12-12T09:33:32.858Z,3.65
2022-12-12T09:36:02.498Z,6.15
2022-12-12T09:38:32.159Z,9.63
2022-12-12T09:41:03.866Z,3.85
2022-12-12T09:43:34.852Z,7.88
2022-12-12T09:46:05.212Z,6.63
2022-12-12T09:48:41.926Z,5.10
2022-12-12T09:51:11.266Z,7.00
2022-12-12T09:53:43.070Z,10.30
2022-12-12T09:56:16.250Z,9.95
2022-12-12T09:58:53.950Z,5.00
2022-12-12T10:01:30.967Z,7.85
2022-12-12T10:04:10.435Z,9.23
2022-12-12T10:06:44.853Z,7.93
2022-12-12T10:09:39.477Z,7.10
2022-12-12T10:12:13.072Z,9.40
2022-12-12T10:14:45.228Z,9.57
2022-12-12T10:17:17.830Z,6.85
2022-12-12T10:19:50.189Z,5.68
2022-12-12T10:22:26.779Z,3.83
2022-12-12T10:25:01.307Z,3.47
2022-12-12T10:27:30.448Z,5.90
2022-12-12T10:30:08.099Z,8.15
2022-12-12T10:32:44.478Z,7.60
2022-12-12T10:35:26.366Z,7.38
2022-12-12T10:38:10.253Z,8.45
2022-12-12T10:40:51.342Z,6.68
2022-12-12T10:43:23.578Z,9.32
2022-12-12T10:46:16.268Z,5.65
2022-12-12T10:48:45.663Z,6.82
2022-12-12T10:51:17.702Z,6.55
2022-12-12T10:53:45.861Z,6.10
2022-12-12T10:56:21.410Z,6.10
2022-12-12T10:58:54.683Z,6.63
2022-12-12T11:02:00.673Z,7.93
2022-12-12T11:04:17.329Z,5.22
2022-12-12T11:06:49.054Z,7.18
2022-12-12T11:09:21.166Z,4.32
2022-12-12T11:12:00.603Z,7.07
2022-12-12T11:14:33.770Z,7.25
2022-12-12T11:17:02.262Z,4.30
2022-12-12T11:19:38.738Z,5.35
2022-12-12T11:22:06.882Z,8.10
2022-12-12T11:24:35.925Z,10.32
2022-12-12T11:27:08.287Z,5.65
2022-12-12T11:29:43.673Z,7.05
2022-12-12T11:32:15.219Z,7.00
2022-12-12T11:34:48.529Z,10.88
2022-12-12T11:37:18.133Z,6.57
2022-12-12T11:39:47.918Z,9.80
2022-12-12T11:42:23.094Z,6.25
2022-12-12T11:45:00.489Z,5.30
2022-12-12T11:47:30.734Z,7.68
2022-12-12T11:50:00.277Z,6.00
2022-12-12T11:52:30.739Z,8.93
2022-12-12T11:54:59.551Z,11.07
2022-12-12T11:57:49.151Z,7.25
2022-12-12T12:00:20.020Z,7.10
2022-12-12T12:03:23.785Z,9.13
2022-12-12T12:06:06.924Z,9.75
2022-12-12T12:08:48.399Z,8.57
2022-12-12T12:11:27.668Z,14.07
2022-12-12T12:14:12.331Z,5.30
2022-12-12T12:16:53.407Z,14.07
2022-12-12T12:19:28.648Z,7.28
2022-12-12T12:22:03.660Z,8.77
2022-12-12T12:24:59.980Z,11.65
2022-12-12T12:27:36.380Z,4.78
2022-12-12T12:30:23.399Z,10.30
2022-12-12T12:33:12.394Z,11.00
2022-12-12T12:35:50.912Z,10.52
2022-12-12T12:38:27.559Z,7.10
2022-12-12T12:41:13.993Z,7.05
2022-12-12T12:43:57.829Z,10.63
2022-12-12T12:46:38.347Z,14.77
2022-12-12T12:49:13.707Z,7.10
2022-12-12T12:51:50.456Z,8.25
2022-12-12T12:54:24.051Z,7.80
2022-12-12T12:56:58.115Z,10.43
2022-12-12T12:59:30.696Z,6.45
2022-12-12T13:02:03.737Z,9.38
2022-12-12T13:04:36.911Z,11.63
2022-12-12T13:07:14.162Z,10.15
2022-12-12T13:09:47.234Z,6.00
2022-12-12T13:12:21.053Z,8.27
2022-12-12T13:14:53.715Z,8.77
2022-12-12T13:17:27.746Z,9.00
2022-12-12T13:19:58.623Z,10.45
2022-12-12T13:22:38.204Z,7.15
2022-12-12T13:25:12.395Z,6.82
2022-12-12T13:27:45.857Z,6.45
2022-12-12T13:30:22.344Z,9.20
2022-12-12T13:33:13.601Z,8.52
2022-12-12T13:35:46.008Z,9.40
2022-12-12T13:38:20.221Z,7.85
2022-12-12T13:40:57.130Z,11.30
2022-12-12T13:43:29.985Z,6.82
2022-12-12T13:45:58.215Z,10.95
2022-12-12T13:48:46.874Z,10.65
2022-12-12T13:51:36.554Z,6.50
2022-12-12T13:54:49.578Z,10.18
2022-12-12T13:57:31.025Z,11.10
2022-12-12T14:00:19.154Z,11.38
2022-12-12T14:03:01.245Z,12.05
2022-12-12T14:05:36.550Z,12.07
2022-12-12T14:08:21.282Z,12.18
2022-12-12T14:11:01.308Z,13.48
2022-12-12T14:13:36.582Z,11.52
2022-12-12T14:16:08.258Z,12.13
2022-12-12T14:18:40.489Z,7.55
2022-12-12T14:21:13.061Z,10.25
2022-12-12T14:23:42.738Z,10.82
2022-12-12T14:26:49.471Z,6.07
2022-12-12T14:29:28.669Z,7.15
2022-12-12T14:32:16.347Z,9.20
2022-12-12T14:34:55.864Z,9.75
2022-12-12T14:37:51.331Z,8.88
2022-12-12T14:40:22.928Z,11.45
2022-12-12T14:43:21.413Z,16.67
2022-12-12T14:45:56.208Z,10.10
2022-12-12T14:48:27.079Z,8.95
2022-12-12T14:51:01.015Z,8.35
2022-12-12T14:53:34.025Z,9.35
2022-12-12T14:56:05.317Z,7.00
2022-12-12T14:58:37.313Z,12.30
2022-12-12T15:01:07.726Z,8.35
2022-12-12T15:03:40.808Z,4.43
2022-12-12T15:06:37.712Z,7.47
2022-12-12T15:09:18.827Z,9.13
2022-12-12T15:11:47.776Z,10.80
2022-12-12T15:14:20.487Z,7.63
2022-12-12T15:16:52.902Z,18.05
2022-12-12T15:19:27.250Z,8.50
2022-12-12T15:21:56.325Z,14.35
2022-12-12T15:24:27.544Z,6.97
2022-12-12T15:26:57.834Z,6.70
2022-12-12T15:29:28.946Z,7.63
2022-12-12T15:32:01.614Z,8.27
2022-12-12T15:34:38.620Z,10.05
2022-12-12T15:37:25.409Z,6.00
2022-12-12T15:40:18.493Z,10.73
2022-12-12T15:42:51.027Z,8.98
2022-12-12T15:45:23.567Z,8.93
2022-12-12T15:47:53.568Z,5.53
2022-12-12T15:50:23.926Z,8.18
2022-12-12T15:53:05.565Z,8.23
2022-12-12T15:55:35.972Z,5.32
2022-12-12T15:58:04.212Z,7.97
2022-12-12T16:00:39.109Z,7.82
2022-12-12T16:03:21.495Z,10.13
2022-12-12T16:06:04.112Z,9.15
2022-12-12T16:08:49.203Z,4.50
2022-12-12T16:11:41.029Z,5.68
2022-12-12T16:14:40.698Z,3.85
2022-12-12T16:17:14.064Z,13.32
2022-12-12T16:19:44.553Z,5.93
2022-12-12T16:22:31.179Z,9.27
2022-12-12T16:25:13.626Z,10.98
2022-12-12T16:27:43.259Z,18.55
2022-12-12T16:30:14.462Z,9.55
2022-12-12T16:32:43.371Z,7.68
2022-12-12T16:35:16.335Z,8.00
2022-12-12T16:37:45.833Z,8.23
2022-12-12T16:40:15.587Z,8.88
2022-12-12T16:42:48.982Z,8.25
2022-12-12T16:45:17.059Z,8.20
2022-12-12T16:47:45.227Z,6.43
2022-12-12T16:50:14.498Z,11.25
2022-12-12T16:52:42.725Z,11.75
2022-12-12T16:55:15.737Z,9.95
2022-12-12T16:57:46.624Z,7.07
2022-12-12T17:00:16.363Z,7.72
2022-12-12T17:02:44.772Z,7.45
2022-12-12T17:05:18.283Z,7.35
2022-12-12T17:07:46.476Z,11.75
2022-12-12T17:10:16.524Z,7.18
2022-12-12T17:12:46.526Z,9.82
2022-12-12T17:15:18.493Z,11.63
2022-12-12T17:17:46.807Z,10.05
2022-12-12T17:20:15.635Z,9.88
2022-12-12T17:22:44.362Z,5.55
2022-12-12T17:25:12.820Z,7.05
2022-12-12T17:27:41.681Z,7.40
2022-12-12T17:30:13.805Z,8.13
2022-12-12T17:32:43.135Z,9.98
2022-12-12T17:35:11.417Z,6.45
2022-12-12T17:37:39.956Z,8.75
2022-12-12T17:40:10.950Z,6.93
2022-12-12T17:42:39.695Z,9.18
2022-12-12T17:45:10.171Z,7.88
2022-12-12T17:47:39.563Z,4.47
2022-12-12T17:50:09.021Z,12.02
2022-12-12T17:52:37.442Z,9.77
2022-12-12T17:55:51.727Z,11.88
2022-12-12T17:57:54.392Z,10.10
2022-12-12T18:00:22.577Z,14.45
2022-12-12T18:02:51.884Z,9.05
2022-12-12T18:05:19.943Z,11.80
2022-12-12T18:07:47.942Z,9.90
2022-12-12T18:10:16.411Z,8.82
2022-12-12T18:12:51.310Z,8.95
2022-12-12T18:15:19.869Z,15.52
2022-12-12T18:17:47.823Z,8.30
2022-12-12T18:20:17.672Z,7.00
2022-12-12T18:22:45.722Z,8.98
2022-12-12T18:25:13.743Z,9.00
2022-12-12T18:27:41.736Z,10.50
2022-12-12T18:30:11.479Z,10.95
2022-12-12T18:32:40.013Z,9.75
2022-12-12T18:35:08.925Z,11.40
2022-12-12T18:37:38.338Z,10.50
2022-12-12T18:40:08.517Z,9.07
2022-12-12T18:42:36.621Z,9.60
2022-12-12T18:45:05.782Z,12.02
2022-12-12T18:47:33.800Z,7.70
2022-12-12T18:50:01.891Z,8.48
2022-12-12T18:52:30.033Z,10.50
2022-12-12T18:54:59.442Z,13.80
2022-12-12T18:57:27.616Z,7.38
2022-12-12T18:59:55.642Z,15.95
2022-12-12T19:02:23.893Z,11.80
2022-12-12T19:04:53.833Z,18.63
2022-12-12T19:07:21.917Z,6.93
2022-12-12T19:09:50.036Z,8.35
2022-12-12T19:12:19.371Z,10.60
2022-12-12T19:17:36.191Z,9.65
2022-12-12T19:20:04.734Z,6.07
2022-12-12T19:22:44.851Z,6.47
2022-12-12T19:25:14.144Z,13.13
2022-12-12T19:27:43.935Z,5.70
2022-12-12T19:30:14.011Z,9.57
2022-12-12T19:32:43.417Z,15.73
2022-12-12T19:35:11.830Z,10.15
2022-12-12T19:37:40.205Z,7.97
2022-12-12T19:40:09.734Z,9.32
2022-12-12T19:42:38.753Z,13.48
2022-12-12T19:45:09.774Z,10.43
2022-12-12T19:47:38.004Z,8.45
2022-12-12T19:50:06.853Z,6.50
2022-12-12T19:52:35.043Z,5.00
2022-12-12T19:55:03.118Z,7.03
2022-12-12T19:57:32.002Z,9.57
2022-12-12T20:00:00.069Z,7.00
2022-12-12T20:02:29.676Z,13.55
2022-12-12T20:04:57.707Z,4.65
2022-12-12T20:07:26.231Z,7.00
2022-12-12T20:09:54.254Z,5.90
2022-12-12T20:12:22.678Z,27.10
2022-12-12T20:14:51.249Z,7.47
2022-12-12T20:17:20.000Z,8.63
2022-12-12T20:19:49.938Z,7.22
2022-12-12T20:22:18.380Z,4.88
2022-12-12T20:24:47.066Z,8.50
2022-12-12T20:27:16.199Z,8.75
2022-12-12T20:29:44.688Z,3.92
2022-12-12T20:32:14.269Z,3.78
2022-12-12T20:34:42.762Z,4.60
2022-12-12T20:37:18.205Z,6.25
2022-12-12T20:39:48.274Z,5.97
2022-12-12T20:42:17.025Z,5.47
2022-12-12T20:44:45.054Z,4.90
2022-12-12T20:47:17.314Z,9.57
2022-12-12T20:49:45.577Z,4.65
2022-12-12T20:52:15.536Z,5.18
2022-12-12T20:54:44.277Z,7.57
2022-12-12T20:57:12.916Z,5.45
2022-12-12T20:59:41.668Z,3.35
2022-12-12T21:02:12.232Z,4.57
2022-12-12T21:04:40.776Z,10.10
2022-12-12T21:07:09.696Z,19.70
2022-12-12T21:09:39.185Z,14.45
2022-12-12T21:12:07.929Z,8.05
2022-12-12T21:14:36.980Z,3.70
2022-12-12T21:17:05.445Z,5.53
2022-12-12T21:19:34.677Z,4.00
2022-12-12T21:22:03.821Z,26.92
2022-12-12T21:24:32.209Z,29.17
2022-12-12T21:27:01.941Z,31.52
2022-12-12T21:29:29.946Z,10.52
2022-12-12T21:31:58.849Z,4.07
2022-12-12T21:34:27.109Z,3.92
2022-12-12T21:36:56.549Z,5.13
2022-12-12T21:39:27.022Z,5.20
2022-12-12T21:41:56.125Z,7.07
2022-12-12T21:44:26.549Z,4.22
2022-12-12T21:46:54.599Z,10.10
2022-12-12T21:49:30.700Z,4.93
2022-12-12T21:52:00.441Z,24.90
2022-12-12T21:54:30.237Z,22.63
2022-12-12T21:56:59.154Z,6.25
2022-12-12T21:59:29.372Z,7.47
2022-12-12T22:01:59.617Z,3.85
2022-12-12T22:04:28.249Z,7.40
2022-12-12T22:06:57.068Z,6.97
2022-12-12T22:09:26.362Z,4.45
2022-12-12T22:12:04.024Z,3.63
2022-12-12T22:14:35.652Z,3.50
2022-12-12T22:17:06.464Z,5.35
2022-12-12T22:19:34.590Z,3.75
2022-12-12T22:22:02.785Z,9.05
2022-12-12T22:24:30.907Z,4.10
2022-12-12T22:26:59.023Z,5.88
2022-12-12T22:29:27.014Z,5.45
2022-12-12T22:31:56.476Z,2.63
2022-12-12T22:34:25.570Z,4.07
2022-12-12T22:36:54.547Z,3.72
2022-12-12T22:39:24.305Z,5.32
2022-12-12T22:41:52.651Z,3.78
2022-12-12T22:44:22.484Z,6.70
2022-12-12T22:46:53.485Z,4.05
2022-12-12T22:49:26.511Z,3.92
2022-12-12T22:51:56.145Z,4.28
2022-12-12T22:54:24.401Z,3.30
2022-12-12T22:56:52.549Z,3.55
2022-12-12T22:59:20.705Z,3.00
2022-12-12T23:01:49.927Z,8.77
2022-12-12T23:04:17.983Z,3.00
2022-12-12T23:06:47.547Z,5.75
2022-12-12T23:09:17.258Z,3.22
2022-12-12T23:11:46.689Z,4.20
2022-12-12T23:14:16.963Z,3.00
2022-12-12T23:16:45.431Z,4.25
2022-12-12T23:19:16.094Z,3.15
2022-12-12T23:21:44.307Z,3.00
2022-12-12T23:24:14.617Z,6.03
2022-12-12T23:26:43.635Z,3.45
2022-12-12T23:29:16.272Z,4.15
2022-12-12T23:31:45.686Z,5.70
2022-12-12T23:34:17.812Z,5.10
2022-12-12T23:36:45.917Z,3.20
2022-12-12T23:39:16.015Z,4.22
2022-12-12T23:41:45.145Z,5.07
2022-12-12T23:44:15.079Z,2.35
2022-12-12T23:46:43.854Z,4.57
2022-12-12T23:49:16.200Z,3.80
2022-12-12T23:51:45.970Z,3.28
2022-12-12T23:54:17.207Z,2.97
2022-12-12T23:56:47.104Z,6.63
2022-12-12T23:59:17.916Z,2.40
